Time;durP1;ratioP1;P1;durP2;ratioP2;P2;SDS_P1;SDS_P2;PMS_P1;PMS_P2;Temp;Humidity;BMP_temperature;BMP_pressure;BME280_temperature;BME280_humidity;BME280_pressure;Samples;Min_cycle;Max_cycle;Signal;HPM_P1;HPM_P2
2021/12/30 00:01:20;;;;;;;22.63;6.37;;;12.00;99.90;;;;;;5038441;28;20228;-78
2021/12/30 00:03:47;;;;;;;28.80;6.00;;;12.00;99.90;;;;;;5038418;28;20226;-78
2021/12/30 00:06:14;;;;;;;25.10;5.93;;;12.10;99.90;;;;;;5038753;28;20233;-78
2021/12/30 00:08:39;;;;;;;26.53;5.80;;;12.00;99.90;;;;;;5037262;28;20173;-78
2021/12/30 00:11:06;;;;;;;26.03;6.23;;;12.00;99.90;;;;;;5037879;28;20176;-78
2021/12/30 00:13:33;;;;;;;24.57;5.67;;;12.00;99.90;;;;;;5037323;28;20195;-78
2021/12/30 00:15:59;;;;;;;21.27;6.33;;;11.90;99.90;;;;;;5038882;28;20527;-78
2021/12/30 00:18:24;;;;;;;21.27;5.93;;;11.90;99.90;;;;;;5039794;28;20222;-78
2021/12/30 00:20:50;;;;;;;25.17;5.83;;;11.90;99.90;;;;;;5036291;28;20172;-78
2021/12/30 00:23:15;;;;;;;32.37;5.47;;;11.90;99.90;;;;;;5037576;28;20697;-78
2021/12/30 00:25:42;;;;;;;22.67;5.33;;;11.90;99.90;;;;;;5038073;28;20188;-78
2021/12/30 00:28:16;;;;;;;22.03;5.27;;;11.80;99.90;;;;;;5038061;28;20172;-78
2021/12/30 00:30:44;;;;;;;24.37;4.80;;;11.80;99.90;;;;;;5036373;28;20256;-78
2021/12/30 00:33:10;;;;;;;22.57;5.23;;;11.80;99.90;;;;;;5037436;28;20283;-78
2021/12/30 00:35:36;;;;;;;24.77;5.27;;;11.70;99.90;;;;;;5037863;28;20737;-78
2021/12/30 00:38:02;;;;;;;28.83;6.13;;;11.70;99.90;;;;;;5037928;28;20168;-78
2021/12/30 00:40:28;;;;;;;21.30;4.97;;;11.70;99.90;;;;;;5037406;28;20541;-78
2021/12/30 00:42:54;;;;;;;32.27;5.70;;;11.70;99.90;;;;;;5035533;28;20222;-78
2021/12/30 00:45:19;;;;;;;26.50;5.07;;;11.70;99.90;;;;;;5035439;28;20546;-78
2021/12/30 00:47:45;;;;;;;22.10;5.00;;;11.70;99.90;;;;;;5036023;28;20235;-78
2021/12/30 00:50:11;;;;;;;26.93;5.50;;;11.70;99.90;;;;;;5035563;28;20176;-78
2021/12/30 00:52:37;;;;;;;26.13;6.77;;;11.70;99.90;;;;;;5037442;28;20211;-78
2021/12/30 00:55:04;;;;;;;21.30;4.83;;;11.60;99.90;;;;;;5037654;28;20176;-78
2021/12/30 00:57:30;;;;;;;24.63;5.57;;;11.60;99.90;;;;;;5037439;28;20168;-79
2021/12/30 00:59:55;;;;;;;22.43;5.27;;;11.60;99.90;;;;;;5037765;28;20169;-79
2021/12/30 01:02:21;;;;;;;21.60;4.70;;;11.70;99.90;;;;;;5035059;28;20684;-78
2021/12/30 01:04:46;;;;;;;23.50;5.13;;;11.60;99.90;;;;;;5034092;28;20187;-78
2021/12/30 01:07:12;;;;;;;29.10;5.30;;;11.60;99.90;;;;;;5033661;28;20187;-78
2021/12/30 01:09:38;;;;;;;26.23;5.07;;;11.60;99.90;;;;;;5035568;28;20180;-78
2021/12/30 01:12:04;;;;;;;25.30;5.17;;;11.60;99.90;;;;;;5035174;28;20196;-78
2021/12/30 01:14:31;;;;;;;27.80;4.97;;;11.60;99.90;;;;;;5034298;28;20199;-78
2021/12/30 01:17:10;;;;;;;21.13;4.63;;;11.60;99.90;;;;;;5035476;28;20209;-78
2021/12/30 01:19:45;;;;;;;31.70;6.17;;;11.70;99.90;;;;;;5036068;28;20157;-78
2021/12/30 01:22:21;;;;;;;26.63;5.17;;;11.60;99.90;;;;;;5034453;28;20171;-78
2021/12/30 01:24:47;;;;;;;30.77;4.67;;;11.70;99.90;;;;;;5036240;28;20187;-78
2021/12/30 01:27:13;;;;;;;21.67;4.40;;;11.70;99.90;;;;;;5034504;28;20172;-78
2021/12/30 01:29:39;;;;;;;27.97;5.00;;;11.70;99.90;;;;;;5035671;28;20221;-78
2021/12/30 01:32:06;;;;;;;24.33;4.57;;;11.70;99.90;;;;;;5034451;28;20204;-78
2021/12/30 01:34:32;;;;;;;28.00;5.83;;;11.70;99.90;;;;;;5036595;28;20168;-78
2021/12/30 01:37:01;;;;;;;28.83;5.80;;;11.70;99.90;;;;;;5037925;28;20164;-78
2021/12/30 01:39:28;;;;;;;24.03;4.80;;;11.70;99.90;;;;;;5037803;28;20712;-78
2021/12/30 01:41:54;;;;;;;28.27;5.00;;;11.70;99.90;;;;;;5035515;28;20178;-78
2021/12/30 01:44:21;;;;;;;26.57;5.20;;;11.70;99.90;;;;;;5035900;28;20172;-78
2021/12/30 01:46:48;;;;;;;17.20;4.10;;;11.70;99.90;;;;;;5036200;28;20227;-78
2021/12/30 01:49:14;;;;;;;25.27;5.13;;;11.70;99.90;;;;;;5036371;28;20665;-79
2021/12/30 01:51:42;;;;;;;22.23;4.30;;;11.70;99.90;;;;;;5037092;28;20204;-78
2021/12/30 01:54:08;;;;;;;29.07;4.97;;;11.70;99.90;;;;;;5035602;28;20224;-78
2021/12/30 01:56:34;;;;;;;19.50;4.40;;;11.70;99.90;;;;;;5034036;28;20203;-78
2021/12/30 01:59:02;;;;;;;26.13;5.40;;;11.70;99.90;;;;;;5035312;28;20643;-77
2021/12/30 02:01:28;;;;;;;20.47;4.10;;;11.70;99.90;;;;;;5037856;28;20202;-78
2021/12/30 02:03:53;;;;;;;21.53;5.07;;;11.70;99.90;;;;;;5038484;28;20283;-78
2021/12/30 02:06:19;;;;;;;22.50;4.20;;;11.70;99.90;;;;;;5038980;28;20658;-78
2021/12/30 02:08:45;;;;;;;28.60;4.93;;;11.70;99.90;;;;;;5039278;28;20196;-78
2021/12/30 02:11:11;;;;;;;23.73;4.57;;;11.70;99.90;;;;;;5039390;28;20263;-78
2021/12/30 02:13:36;;;;;;;21.93;4.70;;;11.60;99.90;;;;;;5039461;28;20200;-78
2021/12/30 02:16:02;;;;;;;25.50;4.17;;;11.60;99.90;;;;;;5039321;28;20168;-78
2021/12/30 02:18:29;;;;;;;22.20;4.30;;;11.60;99.90;;;;;;5038680;28;20184;-78
2021/12/30 02:21:00;;;;;;;23.00;4.37;;;11.60;99.90;;;;;;5038393;28;20176;-78
2021/12/30 02:23:31;;;;;;;19.17;4.30;;;11.60;99.90;;;;;;5040487;28;20188;-78
2021/12/30 02:26:00;;;;;;;23.80;4.63;;;11.60;99.90;;;;;;5039736;28;20181;-78
2021/12/30 02:28:30;;;;;;;17.27;3.90;;;11.60;99.90;;;;;;5038698;28;20168;-78
2021/12/30 02:30:58;;;;;;;22.13;4.23;;;11.50;99.90;;;;;;5038307;28;20260;-78
2021/12/30 02:33:25;;;;;;;20.27;3.87;;;11.60;99.90;;;;;;5040354;28;20242;-78
2021/12/30 02:35:52;;;;;;;22.37;4.17;;;11.50;99.90;;;;;;5040891;28;20172;-77
2021/12/30 02:38:18;;;;;;;23.90;4.87;;;11.60;99.90;;;;;;5038991;28;20177;-78
2021/12/30 02:40:48;;;;;;;22.53;4.40;;;11.60;99.90;;;;;;5037047;28;20651;-78
2021/12/30 02:43:20;;;;;;;19.73;4.60;;;11.60;99.90;;;;;;5038197;28;20199;-77
2021/12/30 02:45:46;;;;;;;25.87;4.77;;;11.60;99.90;;;;;;5036783;28;20168;-78
2021/12/30 02:48:13;;;;;;;23.37;5.23;;;11.60;99.90;;;;;;5037177;28;20184;-78
2021/12/30 02:50:39;;;;;;;20.73;4.40;;;11.60;99.90;;;;;;5037786;28;20206;-78
2021/12/30 02:53:04;;;;;;;33.40;6.13;;;11.60;99.90;;;;;;5037715;28;20279;-78
2021/12/30 02:55:30;;;;;;;20.47;4.60;;;11.70;99.90;;;;;;5036184;28;20672;-78
2021/12/30 02:57:55;;;;;;;27.07;5.47;;;11.70;99.90;;;;;;5037651;28;20255;-78
2021/12/30 03:00:21;;;;;;;28.87;4.50;;;11.70;99.90;;;;;;5038057;28;20173;-78
2021/12/30 03:02:46;;;;;;;19.33;4.10;;;11.70;99.90;;;;;;5037731;28;20275;-77
2021/12/30 03:05:16;;;;;;;20.80;3.87;;;11.70;99.90;;;;;;5035958;28;20184;-78
2021/12/30 03:07:42;;;;;;;21.53;4.93;;;11.70;99.90;;;;;;5037329;28;20642;-78
2021/12/30 03:10:18;;;;;;;19.63;4.40;;;11.70;99.90;;;;;;5036277;28;20182;-78
2021/12/30 03:12:44;;;;;;;24.33;4.50;;;11.60;99.90;;;;;;5037326;28;20204;-77
2021/12/30 03:15:14;;;;;;;23.87;4.90;;;11.70;99.90;;;;;;5036000;28;20180;-78
2021/12/30 03:17:40;;;;;;;17.03;4.30;;;11.70;99.90;;;;;;5037506;28;20168;-78
2021/12/30 03:20:09;;;;;;;26.13;5.13;;;11.60;99.90;;;;;;5036255;28;20268;-78
2021/12/30 03:22:39;;;;;;;22.97;4.43;;;11.60;99.90;;;;;;5037591;28;20199;-78
2021/12/30 03:25:07;;;;;;;17.63;4.27;;;11.60;99.90;;;;;;5035942;28;20219;-78
2021/12/30 03:27:33;;;;;;;20.53;5.23;;;11.60;99.90;;;;;;5037345;28;20239;-78
2021/12/30 03:29:58;;;;;;;22.63;5.30;;;11.60;99.90;;;;;;5036524;28;20180;-78
2021/12/30 03:32:24;;;;;;;19.77;4.37;;;11.70;99.90;;;;;;5037633;28;20208;-78
2021/12/30 03:34:50;;;;;;;17.83;4.57;;;11.60;99.90;;;;;;5036384;28;20588;-78
2021/12/30 03:37:15;;;;;;;22.03;4.93;;;11.70;99.90;;;;;;5037804;28;20171;-78
2021/12/30 03:39:41;;;;;;;17.20;4.47;;;11.60;99.90;;;;;;5037358;28;20218;-78
2021/12/30 03:42:08;;;;;;;22.40;5.30;;;11.60;99.90;;;;;;5037002;28;20255;-78
2021/12/30 03:44:33;;;;;;;24.03;5.27;;;11.60;99.90;;;;;;5044841;28;20187;-78
2021/12/30 03:46:59;;;;;;;22.53;5.30;;;11.70;99.90;;;;;;5054804;28;20235;-78
2021/12/30 03:49:25;;;;;;;20.43;5.00;;;11.70;99.90;;;;;;5055454;28;20176;-78
2021/12/30 03:51:53;;;;;;;20.07;5.37;;;11.70;99.90;;;;;;5055043;28;20272;-78
2021/12/30 03:54:19;;;;;;;19.43;5.13;;;11.70;99.90;;;;;;5054876;28;20213;-78
2021/12/30 03:56:45;;;;;;;18.07;4.50;;;11.70;99.90;;;;;;5054477;28;20184;-78
2021/12/30 03:59:10;;;;;;;27.53;5.30;;;11.70;99.90;;;;;;5056863;28;20206;-78
2021/12/30 04:01:36;;;;;;;22.50;5.47;;;11.70;99.90;;;;;;5058188;28;20164;-78
2021/12/30 04:04:02;;;;;;;17.80;4.83;;;11.70;99.90;;;;;;5056811;28;20275;-78
2021/12/30 04:06:28;;;;;;;20.87;5.13;;;11.70;99.90;;;;;;5056006;28;20207;-78
2021/12/30 04:08:55;;;;;;;20.67;6.27;;;11.80;99.90;;;;;;5049950;28;20227;-79
2021/12/30 04:11:26;;;;;;;19.50;5.33;;;11.70;99.90;;;;;;5043212;28;20184;-79
2021/12/30 04:13:51;;;;;;;21.27;7.13;;;11.80;99.90;;;;;;5050307;23;20238;-80
2021/12/30 04:16:19;;;;;;;20.97;6.37;;;11.80;99.90;;;;;;5030720;28;20256;-80
2021/12/30 04:18:48;;;;;;;17.47;6.00;;;11.80;99.90;;;;;;5015337;28;20172;-80
2021/12/30 04:21:23;;;;;;;21.30;6.30;;;11.80;99.90;;;;;;5014649;28;20176;-81
2021/12/30 04:23:49;;;;;;;18.70;7.50;;;11.90;99.90;;;;;;5030316;28;20203;-80
2021/12/30 04:26:15;;;;;;;24.70;7.47;;;11.90;99.90;;;;;;5015665;28;20252;-80
2021/12/30 04:28:40;;;;;;;19.23;6.90;;;11.90;99.90;;;;;;5015358;28;20165;-81
2021/12/30 04:31:06;;;;;;;15.63;7.23;;;11.90;99.90;;;;;;5015463;28;20161;-80
2021/12/30 04:33:32;;;;;;;17.60;6.87;;;11.90;99.90;;;;;;5015121;28;20663;-81
2021/12/30 04:35:59;;;;;;;14.60;6.57;;;11.90;99.90;;;;;;5015618;28;20259;-80
2021/12/30 04:38:28;;;;;;;14.67;7.27;;;11.90;99.90;;;;;;5015338;28;20165;-80
2021/12/30 04:40:54;;;;;;;21.90;7.57;;;12.00;99.90;;;;;;5030381;28;20173;-81
2021/12/30 04:43:19;;;;;;;15.93;6.97;;;12.00;99.90;;;;;;5015264;28;20197;-80
2021/12/30 04:45:47;;;;;;;17.67;6.90;;;12.00;99.90;;;;;;5015166;28;20526;-80
2021/12/30 04:48:13;;;;;;;19.57;6.33;;;12.00;99.90;;;;;;5015345;28;20173;-80
2021/12/30 04:50:39;;;;;;;16.87;6.90;;;12.00;99.90;;;;;;5014149;28;20647;-80
2021/12/30 04:53:05;;;;;;;19.10;7.20;;;12.00;99.90;;;;;;5015699;28;20210;-80
2021/12/30 04:55:31;;;;;;;15.97;6.53;;;12.00;99.90;;;;;;5013760;28;20602;-81
2021/12/30 04:57:56;;;;;;;16.40;7.07;;;12.00;99.90;;;;;;5015035;28;20697;-80
2021/12/30 05:00:22;;;;;;;14.60;6.47;;;12.00;99.90;;;;;;5015298;28;20256;-80
2021/12/30 05:05:16;;;;;;;16.47;7.73;;;12.00;99.90;;;;;;5015341;28;20177;-80
2021/12/30 05:07:41;;;;;;;14.00;7.07;;;11.90;99.90;;;;;;5015202;28;20188;-80
2021/12/30 05:10:07;;;;;;;17.67;6.93;;;12.00;99.90;;;;;;5015805;28;20264;-80
2021/12/30 05:12:33;;;;;;;15.90;7.50;;;12.00;99.90;;;;;;5014502;28;20192;-80
2021/12/30 05:14:59;;;;;;;13.07;6.70;;;12.00;99.90;;;;;;5013580;28;20173;-80
2021/12/30 05:17:28;;;;;;;13.30;6.90;;;11.90;99.90;;;;;;5015533;28;20181;-80
2021/12/30 05:19:54;;;;;;;13.33;6.10;;;12.00;99.90;;;;;;5013299;28;20170;-80
2021/12/30 05:22:20;;;;;;;14.63;6.17;;;12.00;99.90;;;;;;5014942;28;20188;-80
2021/12/30 05:24:45;;;;;;;14.27;6.10;;;12.00;99.90;;;;;;5014867;28;20195;-80
2021/12/30 05:27:11;;;;;;;10.87;6.40;;;12.00;99.90;;;;;;5014006;28;20220;-80
2021/12/30 05:29:36;;;;;;;10.17;5.40;;;12.00;99.90;;;;;;5014541;28;20172;-81
2021/12/30 05:32:02;;;;;;;8.63;5.43;;;12.10;99.90;;;;;;5030416;28;20207;-80
2021/12/30 05:34:28;;;;;;;11.43;6.30;;;12.20;99.90;;;;;;5015243;28;20283;-80
2021/12/30 05:36:53;;;;;;;12.87;5.23;;;12.20;99.90;;;;;;5019064;28;20165;-80
2021/12/30 05:39:19;;;;;;;8.37;5.70;;;12.20;99.90;;;;;;5018826;28;20181;-81
2021/12/30 05:41:44;;;;;;;6.57;4.67;;;12.30;99.90;;;;;;5018830;28;20181;-80
2021/12/30 05:44:10;;;;;;;7.83;5.13;;;12.40;99.90;;;;;;5017249;28;20212;-81
2021/12/30 05:46:36;;;;;;;7.73;4.33;;;12.40;99.90;;;;;;5018640;28;20177;-80
2021/12/30 05:49:01;;;;;;;7.67;4.80;;;12.60;99.90;;;;;;5017099;28;20191;-80
2021/12/30 05:51:27;;;;;;;6.87;4.67;;;12.60;99.90;;;;;;5017525;28;20185;-81
2021/12/30 05:53:52;;;;;;;7.53;4.07;;;12.60;99.90;;;;;;5018682;28;20193;-80
2021/12/30 05:56:18;;;;;;;7.20;4.40;;;12.70;99.90;;;;;;5016823;28;20181;-80
2021/12/30 05:58:43;;;;;;;7.23;4.00;;;12.70;99.90;;;;;;5018001;28;20188;-80
2021/12/30 06:01:09;;;;;;;7.90;4.40;;;12.70;99.90;;;;;;5018213;28;20177;-80
2021/12/30 06:03:34;;;;;;;4.63;3.63;;;12.90;99.90;;;;;;5033755;28;20208;-80
2021/12/30 06:06:00;;;;;;;6.83;4.10;;;12.90;99.90;;;;;;5033712;28;20631;-80
2021/12/30 06:08:25;;;;;;;6.13;3.73;;;12.90;99.90;;;;;;5018108;28;20173;-81
2021/12/30 06:10:51;;;;;;;5.97;3.63;;;12.80;99.90;;;;;;5018388;28;20181;-80
2021/12/30 06:13:16;;;;;;;5.97;3.33;;;13.00;99.90;;;;;;5017703;28;20212;-80
2021/12/30 06:15:42;;;;;;;8.50;4.50;;;13.00;99.90;;;;;;5018140;28;20299;-80
2021/12/30 06:18:07;;;;;;;6.50;3.70;;;13.10;99.90;;;;;;5018159;28;20173;-80
2021/12/30 06:20:33;;;;;;;6.60;3.90;;;13.10;99.90;;;;;;5017943;28;20177;-80
2021/12/30 06:22:59;;;;;;;6.03;4.20;;;13.10;99.90;;;;;;5018183;28;20339;-80
2021/12/30 06:25:25;;;;;;;7.67;4.50;;;13.20;99.90;;;;;;5018133;28;20181;-80
2021/12/30 06:27:51;;;;;;;5.47;4.17;;;13.20;99.90;;;;;;5017988;28;20173;-80
2021/12/30 06:30:16;;;;;;;4.13;3.73;;;13.20;99.90;;;;;;5018826;28;20711;-80
2021/12/30 06:32:42;;;;;;;4.90;4.00;;;13.20;99.90;;;;;;5018042;28;20566;-80
2021/12/30 06:35:08;;;;;;;7.50;3.60;;;13.30;99.90;;;;;;5017335;28;20213;-80
2021/12/30 06:37:35;;;;;;;4.80;3.43;;;13.30;99.90;;;;;;5016837;28;20207;-79
2021/12/30 06:40:02;;;;;;;5.17;3.53;;;13.40;99.90;;;;;;5016891;28;20631;-80
2021/12/30 06:42:27;;;;;;;3.83;3.37;;;13.40;99.90;;;;;;5017917;28;20260;-79
2021/12/30 06:44:53;;;;;;;5.00;3.30;;;13.40;99.90;;;;;;5017985;28;20240;-80
2021/12/30 06:47:19;;;;;;;4.40;2.90;;;13.40;99.90;;;;;;5017073;28;20271;-79
2021/12/30 06:49:44;;;;;;;3.57;3.10;;;13.40;99.90;;;;;;5033090;28;20177;-80
2021/12/30 06:52:12;;;;;;;4.67;2.80;;;13.40;99.90;;;;;;5032529;28;20205;-80
2021/12/30 06:54:38;;;;;;;3.93;2.73;;;13.50;99.90;;;;;;5018885;28;20192;-80
2021/12/30 06:57:06;;;;;;;3.17;2.20;;;13.60;99.90;;;;;;5017827;28;20173;-79
2021/12/30 06:59:32;;;;;;;3.10;2.33;;;13.60;99.90;;;;;;5018287;28;20173;-79
2021/12/30 07:01:58;;;;;;;3.10;2.53;;;13.60;99.90;;;;;;5017689;28;20186;-79
2021/12/30 07:04:25;;;;;;;6.37;2.30;;;13.70;99.90;;;;;;5018338;28;20223;-80
2021/12/30 07:06:52;;;;;;;2.30;2.10;;;13.60;99.90;;;;;;5017990;28;20173;-80
2021/12/30 07:09:18;;;;;;;2.10;1.90;;;13.70;99.90;;;;;;5018572;28;20252;-79
2021/12/30 07:11:43;;;;;;;2.10;1.70;;;13.80;99.90;;;;;;5032353;28;20212;-79
2021/12/30 07:14:09;;;;;;;2.47;1.63;;;13.80;99.90;;;;;;5017323;28;20204;-81
2021/12/30 07:16:35;;;;;;;2.40;1.70;;;13.80;99.90;;;;;;5032177;28;20267;-79
2021/12/30 07:19:00;;;;;;;3.27;1.57;;;13.80;99.90;;;;;;5017460;28;20631;-80
2021/12/30 07:21:26;;;;;;;1.40;1.30;;;13.90;99.90;;;;;;5032618;28;20177;-79
2021/12/30 07:23:51;;;;;;;2.53;1.57;;;13.90;99.90;;;;;;5017053;28;20204;-79
2021/12/30 07:26:17;;;;;;;2.83;1.57;;;13.90;99.90;;;;;;5015882;28;20184;-79
2021/12/30 07:28:42;;;;;;;3.83;1.30;;;13.90;99.90;;;;;;5018014;28;20227;-80
2021/12/30 07:31:09;;;;;;;2.33;1.70;;;13.90;99.90;;;;;;5032733;28;20288;-79
2021/12/30 07:33:35;;;;;;;1.53;1.20;;;13.80;99.90;;;;;;5016036;28;20216;-79
2021/12/30 07:36:00;;;;;;;3.87;1.50;;;13.90;99.90;;;;;;5017623;28;20178;-79
2021/12/30 07:38:26;;;;;;;1.63;1.53;;;13.80;99.90;;;;;;5017009;28;20185;-79
2021/12/30 07:40:51;;;;;;;1.90;1.60;;;13.80;99.90;;;;;;5017110;28;20635;-79
2021/12/30 07:43:17;;;;;;;2.40;1.80;;;13.80;99.90;;;;;;5016477;28;20205;-79
2021/12/30 07:45:42;;;;;;;1.60;1.40;;;13.80;99.90;;;;;;5016883;28;20176;-79
2021/12/30 07:48:08;;;;;;;1.90;1.70;;;13.80;99.90;;;;;;5015715;28;20181;-78
2021/12/30 07:50:34;;;;;;;1.80;1.67;;;13.80;99.90;;;;;;5016200;28;20176;-79
2021/12/30 07:52:59;;;;;;;1.80;1.40;;;13.80;99.90;;;;;;5016446;28;20259;-80
2021/12/30 07:55:25;;;;;;;3.90;1.80;;;13.80;99.90;;;;;;5016366;28;20168;-80
2021/12/30 07:57:55;;;;;;;2.93;1.53;;;13.80;99.90;;;;;;5015723;28;20204;-79
2021/12/30 08:00:21;;;;;;;2.10;1.70;;;13.80;99.90;;;;;;5015909;28;20212;-79
2021/12/30 08:02:47;;;;;;;2.90;1.57;;;13.80;99.90;;;;;;5015480;28;20173;-79
2021/12/30 08:05:15;;;;;;;2.20;2.00;;;13.80;99.90;;;;;;5015755;28;20177;-79
2021/12/30 08:07:42;;;;;;;1.87;1.77;;;13.70;99.90;;;;;;5016786;28;20255;-79
2021/12/30 08:10:12;;;;;;;4.67;1.73;;;13.80;99.90;;;;;;5016481;28;20180;-79
2021/12/30 08:12:39;;;;;;;2.63;2.17;;;13.70;99.90;;;;;;5016870;28;20196;-79
2021/12/30 08:15:06;;;;;;;5.60;2.30;;;13.70;99.90;;;;;;5016253;28;20161;-80
2021/12/30 08:17:32;;;;;;;2.60;2.07;;;13.70;99.90;;;;;;5016487;28;20177;-79
2021/12/30 08:19:58;;;;;;;2.43;2.17;;;13.70;99.90;;;;;;5031390;28;20176;-79
2021/12/30 08:22:23;;;;;;;3.03;2.17;;;13.70;99.90;;;;;;5016529;28;20208;-79
2021/12/30 08:24:49;;;;;;;2.77;2.17;;;13.70;99.90;;;;;;5016153;28;20196;-79
2021/12/30 08:27:14;;;;;;;2.33;1.80;;;13.70;99.90;;;;;;5015925;28;20212;-79
2021/12/30 08:29:43;;;;;;;2.83;2.10;;;13.70;99.90;;;;;;5015785;28;20251;-79
2021/12/30 08:32:11;;;;;;;2.33;1.87;;;13.70;99.90;;;;;;5015561;28;20705;-79
2021/12/30 08:34:37;;;;;;;2.27;1.90;;;13.70;99.90;;;;;;5015633;28;20704;-79
2021/12/30 08:37:03;;;;;;;3.50;2.57;;;13.60;99.90;;;;;;5015631;28;20639;-79
2021/12/30 08:39:29;;;;;;;2.90;2.10;;;13.70;99.90;;;;;;5015492;28;20169;-79
2021/12/30 08:41:57;;;;;;;2.70;2.27;;;13.70;99.90;;;;;;5015620;28;20176;-80
2021/12/30 08:44:24;;;;;;;2.93;2.27;;;13.70;99.90;;;;;;5015625;28;20201;-79
2021/12/30 08:46:50;;;;;;;2.43;2.23;;;13.70;99.90;;;;;;5015905;28;20165;-78
2021/12/30 08:49:16;;;;;;;3.23;2.30;;;13.70;99.90;;;;;;5014496;28;20180;-78
2021/12/30 08:51:41;;;;;;;2.67;2.47;;;13.70;99.90;;;;;;5015745;28;20204;-78
2021/12/30 08:54:07;;;;;;;3.37;2.60;;;13.60;99.90;;;;;;5014630;28;20197;-78
2021/12/30 08:56:32;;;;;;;3.67;2.43;;;13.60;99.90;;;;;;5015049;28;20267;-78
2021/12/30 08:58:58;;;;;;;3.20;2.63;;;13.60;99.90;;;;;;5015107;28;20223;-79
2021/12/30 09:01:24;;;;;;;3.40;2.53;;;13.60;99.90;;;;;;5014474;28;20272;-78
2021/12/30 09:03:49;;;;;;;4.13;2.90;;;13.60;99.90;;;;;;5015242;28;20544;-78
2021/12/30 09:06:15;;;;;;;4.33;2.30;;;13.60;99.90;;;;;;5015733;28;20181;-78
2021/12/30 09:08:40;;;;;;;2.87;2.40;;;13.60;99.90;;;;;;5015522;28;20204;-79
2021/12/30 09:11:06;;;;;;;3.27;2.60;;;13.60;99.90;;;;;;5015374;28;20173;-79
2021/12/30 09:13:31;;;;;;;2.93;2.43;;;13.60;99.90;;;;;;5015900;28;20212;-79
2021/12/30 09:15:57;;;;;;;2.50;2.30;;;13.60;99.90;;;;;;5016654;28;20208;-78
2021/12/30 09:18:24;;;;;;;4.37;2.50;;;13.50;99.90;;;;;;5014986;28;20188;-78
2021/12/30 09:20:50;;;;;;;2.87;2.23;;;13.60;99.90;;;;;;5016912;28;20165;-79
2021/12/30 09:23:16;;;;;;;2.37;2.10;;;13.60;99.90;;;;;;5016760;28;20773;-79
2021/12/30 09:25:42;;;;;;;2.70;2.50;;;13.60;99.90;;;;;;5016203;28;20216;-79
2021/12/30 09:28:11;;;;;;;5.00;2.47;;;13.60;99.90;;;;;;5015592;28;20180;-79
2021/12/30 09:30:37;;;;;;;4.00;2.43;;;13.60;99.90;;;;;;5015225;28;20593;-78
2021/12/30 09:33:05;;;;;;;2.17;1.97;;;13.70;99.90;;;;;;5015687;28;20213;-78
2021/12/30 09:35:31;;;;;;;3.40;2.40;;;13.70;99.90;;;;;;5030985;28;20173;-78
2021/12/30 09:37:57;;;;;;;1.83;1.70;;;13.70;99.90;;;;;;5015444;28;20169;-78
2021/12/30 09:40:23;;;;;;;5.27;2.07;;;13.80;99.90;;;;;;5030748;28;20184;-78
2021/12/30 09:42:53;;;;;;;2.53;1.50;;;13.80;99.90;;;;;;5013544;28;20181;-78
2021/12/30 09:45:19;;;;;;;1.70;1.60;;;13.90;99.90;;;;;;5015049;28;20663;-79
2021/12/30 09:47:51;;;;;;;4.33;1.40;;;13.90;99.90;;;;;;5015808;28;20176;-78
2021/12/30 09:50:19;;;;;;;1.53;1.40;;;14.00;99.90;;;;;;5016167;28;20220;-79
2021/12/30 09:52:45;;;;;;;1.57;1.47;;;14.00;99.90;;;;;;5015126;28;20541;-79
2021/12/30 09:55:11;;;;;;;1.97;1.30;;;14.00;99.90;;;;;;5015469;28;20180;-79
2021/12/30 09:57:38;;;;;;;3.70;1.37;;;14.10;99.90;;;;;;5015143;28;20177;-78
2021/12/30 10:00:08;;;;;;;3.03;1.60;;;14.10;99.90;;;;;;5015771;28;20184;-79
2021/12/30 10:02:33;;;;;;;1.57;1.20;;;14.10;99.90;;;;;;5013178;28;20184;-79
2021/12/30 10:05:06;;;;;;;2.07;1.43;;;14.20;99.90;;;;;;5014805;28;20172;-79
2021/12/30 10:07:32;;;;;;;1.33;1.20;;;14.20;99.90;;;;;;5015829;28;20634;-78
2021/12/30 10:10:02;;;;;;;1.63;1.43;;;14.30;99.90;;;;;;5014654;28;20199;-79
2021/12/30 10:12:36;;;;;;;1.30;1.20;;;14.40;99.90;;;;;;5015125;28;20586;-79
2021/12/30 10:15:03;;;;;;;1.63;1.03;;;14.50;99.90;;;;;;5041762;22;20258;-78
2021/12/30 10:17:29;;;;;;;1.20;1.00;;;14.60;99.90;;;;;;5018515;28;20173;-78
2021/12/30 10:20:13;;;;;;;1.60;1.00;;;14.60;99.90;;;;;;5018642;28;20252;-78
2021/12/30 10:22:38;;;;;;;5.43;1.20;;;14.70;99.90;;;;;;5023673;28;20165;-78
2021/12/30 10:25:04;;;;;;;1.30;0.90;;;14.80;99.90;;;;;;5022771;28;20199;-78
2021/12/30 10:27:33;;;;;;;0.70;0.70;;;14.80;99.90;;;;;;5022288;28;20233;-78
2021/12/30 10:29:59;;;;;;;0.80;0.70;;;14.80;99.90;;;;;;5022070;28;20185;-78
2021/12/30 10:32:27;;;;;;;1.43;0.90;;;14.80;99.90;;;;;;5023624;28;20233;-78
2021/12/30 10:35:09;;;;;;;2.47;0.87;;;14.80;99.90;;;;;;5025995;28;20200;-78
2021/12/30 10:37:38;;;;;;;1.03;0.90;;;14.80;99.90;;;;;;5027560;28;20164;-78
2021/12/30 10:40:06;;;;;;;2.30;1.33;;;14.80;99.90;;;;;;5020490;28;20175;-79
2021/12/30 10:42:33;;;;;;;2.17;0.83;;;14.80;99.90;;;;;;5017806;28;20712;-78
2021/12/30 10:45:06;;;;;;;1.47;0.80;;;14.80;99.90;;;;;;5020568;28;20650;-78
2021/12/30 10:47:49;;;;;;;1.70;1.10;;;14.80;99.90;;;;;;5020938;28;20241;-78
2021/12/30 10:50:15;;;;;;;1.60;1.10;;;14.80;99.90;;;;;;5020382;28;20165;-78
2021/12/30 10:52:49;;;;;;;1.33;1.13;;;14.80;99.90;;;;;;5019623;28;20211;-77
2021/12/30 10:55:16;;;;;;;2.53;1.20;;;14.90;99.90;;;;;;5019887;28;20235;-78
2021/12/30 10:57:41;;;;;;;2.10;1.20;;;14.90;99.90;;;;;;5017524;28;20169;-78
2021/12/30 11:00:08;;;;;;;2.47;1.07;;;14.90;99.90;;;;;;5020394;28;20173;-78
2021/12/30 11:02:36;;;;;;;2.00;1.40;;;14.80;99.90;;;;;;5021107;28;20196;-77
2021/12/30 11:05:09;;;;;;;2.77;1.37;;;14.80;99.90;;;;;;5017821;28;20208;-77
2021/12/30 11:07:51;;;;;;;2.77;1.10;;;14.80;99.90;;;;;;5016127;28;20172;-77
2021/12/30 11:10:31;;;;;;;3.20;1.30;;;14.80;99.90;;;;;;5015952;28;20223;-77
2021/12/30 11:13:10;;;;;;;3.20;1.30;;;14.70;99.90;;;;;;5017827;28;20666;-78
2021/12/30 11:15:36;;;;;;;3.30;1.47;;;14.70;99.90;;;;;;5017786;28;20211;-78
2021/12/30 11:18:07;;;;;;;4.20;1.60;;;14.70;99.90;;;;;;5015143;28;20524;-77
2021/12/30 11:20:38;;;;;;;2.53;1.80;;;14.70;99.90;;;;;;5015645;28;20778;-77
2021/12/30 11:23:04;;;;;;;4.57;2.23;;;14.60;99.90;;;;;;5015948;28;20165;-76
2021/12/30 11:25:31;;;;;;;5.23;1.70;;;14.60;99.90;;;;;;5014457;28;20545;-77
2021/12/30 11:27:57;;;;;;;6.40;1.53;;;14.60;99.90;;;;;;5015682;28;20191;-76
2021/12/30 11:30:23;;;;;;;3.33;1.57;;;14.60;99.90;;;;;;5017272;28;20181;-77
2021/12/30 11:32:49;;;;;;;4.67;1.60;;;14.60;99.90;;;;;;5016232;28;20246;-79
2021/12/30 11:35:16;;;;;;;4.37;1.80;;;14.60;99.90;;;;;;5024155;28;20189;-79
2021/12/30 11:37:42;;;;;;;4.80;1.83;;;14.60;99.90;;;;;;5024203;28;20192;-79
2021/12/30 11:40:18;;;;;;;5.17;1.70;;;14.60;99.90;;;;;;5025208;28;20169;-79
2021/12/30 11:42:47;;;;;;;3.77;1.27;;;14.60;99.90;;;;;;5023007;28;20175;-78
2021/12/30 11:45:28;;;;;;;5.53;1.93;;;14.60;99.90;;;;;;5022057;28;20193;-78
2021/12/30 11:47:55;;;;;;;4.43;1.70;;;14.70;99.90;;;;;;5022972;28;20173;-78
2021/12/30 11:50:29;;;;;;;4.50;1.60;;;14.70;99.90;;;;;;5020894;28;20271;-78
2021/12/30 11:53:01;;;;;;;3.57;1.67;;;14.80;99.90;;;;;;5023596;28;20276;-79
2021/12/30 11:55:49;;;;;;;7.27;1.73;;;14.80;99.90;;;;;;5024027;28;20185;-79
2021/12/30 11:58:31;;;;;;;6.23;1.87;;;14.70;99.90;;;;;;5022313;28;20165;-79
2021/12/30 12:01:12;;;;;;;5.20;1.80;;;14.60;99.90;;;;;;5024518;28;20187;-79
2021/12/30 12:03:43;;;;;;;5.77;1.77;;;14.70;99.90;;;;;;5021901;28;20205;-78
2021/12/30 12:06:33;;;;;;;5.17;1.70;;;14.80;99.90;;;;;;5022033;28;20242;-78
2021/12/30 12:09:07;;;;;;;7.90;1.83;;;14.90;99.90;;;;;;5023967;28;20594;-78
2021/12/30 12:11:43;;;;;;;3.00;1.50;;;14.90;99.90;;;;;;5024867;28;20175;-78
2021/12/30 12:14:15;;;;;;;4.07;1.90;;;14.90;99.90;;;;;;5026162;28;20209;-78
2021/12/30 12:16:55;;;;;;;5.37;1.90;;;14.80;99.90;;;;;;5026258;28;20160;-79
2021/12/30 12:19:33;;;;;;;3.97;1.60;;;14.80;99.90;;;;;;5026673;28;20157;-79
2021/12/30 12:21:59;;;;;;;4.07;1.93;;;14.70;99.90;;;;;;5027648;28;20177;-78
2021/12/30 12:24:28;;;;;;;4.07;1.60;;;14.80;99.90;;;;;;5020775;28;20208;-78
2021/12/30 12:27:06;;;;;;;3.30;1.80;;;14.70;99.90;;;;;;5020489;28;20191;-79
2021/12/30 12:29:42;;;;;;;7.37;2.10;;;14.70;99.90;;;;;;5022139;28;20255;-78
2021/12/30 12:32:14;;;;;;;6.57;1.90;;;14.70;99.90;;;;;;5024345;28;20194;-78
2021/12/30 12:34:47;;;;;;;3.07;1.60;;;14.70;99.90;;;;;;5023307;28;20197;-79
2021/12/30 12:37:36;;;;;;;6.33;1.60;;;14.70;99.90;;;;;;5025187;28;20158;-79
2021/12/30 12:40:07;;;;;;;4.47;1.87;;;14.70;99.90;;;;;;5025933;28;20170;-79
2021/12/30 12:42:51;;;;;;;5.03;1.70;;;14.80;99.90;;;;;;5024818;28;20188;-79
2021/12/30 12:45:52;;;;;;;6.03;1.43;;;14.70;99.90;;;;;;5026393;28;20192;-79
2021/12/30 12:48:18;;;;;;;3.50;1.70;;;14.70;99.90;;;;;;5027490;28;20248;-78